Time;durP1;ratioP1;P1;durP2;ratioP2;P2;SDS_P1;SDS_P2;PMS_P1;PMS_P2;Temp;Humidity;BMP_temperature;BMP_pressure;BME280_temperature;BME280_humidity;BME280_pressure;Samples;Min_cycle;Max_cycle;Signal;HPM_P1;HPM_P2
2024/03/17 00:02:23;;;;;;;8.52;4.18;;;5.30;99.90;;;;;;5044135;28;20048;-61
2024/03/17 00:04:48;;;;;;;8.68;4.75;;;5.30;99.90;;;;;;5044645;28;20048;-61
2024/03/17 00:07:14;;;;;;;12.38;4.13;;;5.30;99.90;;;;;;5032481;28;20047;-64
2024/03/17 00:09:41;;;;;;;10.27;4.03;;;5.30;99.90;;;;;;5050536;28;20520;-65
2024/03/17 00:12:07;;;;;;;10.65;4.25;;;5.20;99.90;;;;;;5032132;28;20112;-64
2024/03/17 00:14:34;;;;;;;11.43;4.60;;;5.20;99.90;;;;;;5041356;28;20091;-61
2024/03/17 00:17:01;;;;;;;9.45;4.38;;;5.20;99.90;;;;;;5050832;28;20051;-61
2024/03/17 00:19:27;;;;;;;9.25;4.47;;;5.20;99.90;;;;;;5032130;28;20079;-65
2024/03/17 00:21:53;;;;;;;11.55;5.55;;;5.30;99.90;;;;;;5050632;28;20071;-61
2024/03/17 00:24:19;;;;;;;12.20;4.75;;;5.30;99.90;;;;;;5048751;28;20072;-66
2024/03/17 00:26:46;;;;;;;9.20;4.47;;;5.30;99.90;;;;;;5039853;28;20044;-61
2024/03/17 00:29:12;;;;;;;15.25;4.88;;;5.30;99.90;;;;;;5050409;28;20045;-61
2024/03/17 00:31:37;;;;;;;10.07;4.32;;;5.80;99.90;;;;;;5029685;28;20029;-61
2024/03/17 00:34:04;;;;;;;9.23;4.60;;;5.30;99.90;;;;;;5050566;28;20101;-67
2024/03/17 00:36:30;;;;;;;11.10;4.43;;;5.30;99.90;;;;;;5045078;28;20037;-61
2024/03/17 00:38:56;;;;;;;9.75;4.43;;;5.30;99.90;;;;;;5050407;28;20044;-63
2024/03/17 00:41:23;;;;;;;9.82;3.97;;;5.30;99.90;;;;;;5046635;28;20078;-61
2024/03/17 00:43:52;;;;;;;9.02;4.10;;;5.30;99.90;;;;;;5050342;28;20052;-61
2024/03/17 00:46:20;;;;;;;9.80;3.90;;;5.30;99.90;;;;;;5050495;28;20045;-63
2024/03/17 00:48:49;;;;;;;9.02;4.43;;;5.30;99.90;;;;;;5030982;28;20041;-61
2024/03/17 00:51:16;;;;;;;11.18;3.83;;;5.30;99.90;;;;;;5029236;28;20505;-66
2024/03/17 00:53:42;;;;;;;8.25;4.28;;;5.30;99.90;;;;;;5031030;28;20041;-64
2024/03/17 00:56:07;;;;;;;7.00;3.70;;;5.20;99.90;;;;;;5022858;28;20045;-66
2024/03/17 00:58:33;;;;;;;8.02;3.55;;;5.20;99.90;;;;;;5047315;28;20493;-61
2024/03/17 01:00:59;;;;;;;8.43;3.97;;;5.20;99.90;;;;;;5040221;28;20044;-61
2024/03/17 01:03:25;;;;;;;8.82;3.40;;;5.10;99.90;;;;;;5046709;28;20444;-61
2024/03/17 01:05:52;;;;;;;9.93;4.00;;;5.10;99.90;;;;;;5032034;28;20079;-64
2024/03/17 01:08:18;;;;;;;4.90;3.10;;;5.10;99.90;;;;;;5028441;28;20050;-67
2024/03/17 01:10:47;;;;;;;10.00;3.72;;;5.10;99.90;;;;;;5023637;28;20044;-63
2024/03/17 01:13:13;;;;;;;8.90;3.58;;;5.00;99.90;;;;;;5050145;28;20073;-61
2024/03/17 01:15:39;;;;;;;5.95;3.25;;;5.00;99.90;;;;;;5043477;28;20091;-61
2024/03/17 01:18:06;;;;;;;6.22;3.20;;;5.00;99.90;;;;;;5050049;28;20036;-61
2024/03/17 01:20:34;;;;;;;9.55;3.33;;;5.00;99.90;;;;;;5049032;28;20037;-59
2024/03/17 01:22:59;;;;;;;6.88;3.10;;;4.90;99.90;;;;;;5026148;28;20120;-61
2024/03/17 01:25:26;;;;;;;7.97;3.42;;;4.90;99.90;;;;;;5042485;28;20120;-61
2024/03/17 01:27:52;;;;;;;7.38;3.40;;;4.90;99.90;;;;;;5044615;28;20100;-61
2024/03/17 01:30:19;;;;;;;8.18;3.20;;;4.90;99.90;;;;;;5035403;28;20577;-61
2024/03/17 01:32:46;;;;;;;9.32;3.72;;;4.90;99.90;;;;;;5053819;28;20045;-66
2024/03/17 01:35:11;;;;;;;9.00;3.13;;;4.90;99.90;;;;;;5047138;28;20040;-61
2024/03/17 01:37:38;;;;;;;10.27;3.53;;;4.90;99.90;;;;;;5053840;28;20033;-61
2024/03/17 01:40:10;;;;;;;8.07;3.75;;;4.90;99.90;;;;;;5031474;28;20063;-62
2024/03/17 01:42:40;;;;;;;9.43;3.53;;;4.90;99.90;;;;;;5049555;28;20041;-61
2024/03/17 01:45:17;;;;;;;8.05;3.72;;;4.90;99.90;;;;;;5053597;28;20063;-61
2024/03/17 01:47:43;;;;;;;8.73;3.90;;;4.90;99.90;;;;;;5031863;28;20125;-64
2024/03/17 01:50:11;;;;;;;9.15;4.55;;;4.90;99.90;;;;;;5048135;28;20132;-64
2024/03/17 01:52:38;;;;;;;9.55;3.60;;;4.90;99.90;;;;;;5035294;28;20091;-65
2024/03/17 01:55:04;;;;;;;8.00;3.75;;;4.90;99.90;;;;;;5053544;28;20124;-61
2024/03/17 01:57:30;;;;;;;11.32;3.97;;;4.90;99.90;;;;;;5052870;28;20033;-61
2024/03/17 01:59:57;;;;;;;11.80;3.97;;;4.90;99.90;;;;;;5051230;28;20420;-62
2024/03/17 02:02:22;;;;;;;9.63;3.65;;;4.80;99.90;;;;;;5047513;28;20041;-61
2024/03/17 02:04:48;;;;;;;12.82;4.78;;;4.80;99.90;;;;;;5053112;28;20553;-61
2024/03/17 02:07:15;;;;;;;11.35;4.05;;;4.80;99.90;;;;;;5053169;28;20044;-60
2024/03/17 02:09:42;;;;;;;7.45;3.70;;;4.80;99.90;;;;;;5052912;28;20041;-61
2024/03/17 02:12:09;;;;;;;9.30;4.03;;;4.80;99.90;;;;;;5051928;28;20104;-69
2024/03/17 02:14:35;;;;;;;8.57;3.95;;;4.70;99.90;;;;;;5026863;28;20047;-61
2024/03/17 02:17:00;;;;;;;10.13;4.32;;;4.70;99.90;;;;;;5025474;28;20033;-61
2024/03/17 02:19:26;;;;;;;9.82;4.20;;;4.70;99.90;;;;;;5052011;28;20123;-62
2024/03/17 02:21:51;;;;;;;10.07;4.32;;;4.70;99.90;;;;;;5027907;28;20052;-61
2024/03/17 02:24:17;;;;;;;9.35;4.30;;;4.70;99.90;;;;;;5050886;28;20033;-62
2024/03/17 02:26:43;;;;;;;11.38;4.60;;;4.70;99.90;;;;;;5044113;28;20548;-62
2024/03/17 02:29:09;;;;;;;10.88;4.53;;;4.60;99.90;;;;;;5049765;28;20051;-62
2024/03/17 02:31:36;;;;;;;9.93;4.45;;;4.60;99.90;;;;;;5041602;28;20421;-62
2024/03/17 02:34:01;;;;;;;7.72;4.15;;;4.70;99.90;;;;;;5052462;28;20036;-62
2024/03/17 02:36:27;;;;;;;12.25;4.57;;;4.60;99.90;;;;;;5052382;28;20565;-62
2024/03/17 02:41:37;;;;;;;9.82;4.22;;;4.70;99.90;;;;;;5046072;28;20129;-62
2024/03/17 02:44:02;;;;;;;8.20;4.65;;;4.60;99.90;;;;;;5050857;28;20080;-62
2024/03/17 02:46:28;;;;;;;7.63;4.40;;;4.60;99.90;;;;;;5049397;28;20528;-62
2024/03/17 02:48:54;;;;;;;19.60;4.97;;;4.60;99.90;;;;;;5052322;28;20607;-61
2024/03/17 02:51:22;;;;;;;9.73;4.28;;;4.70;99.90;;;;;;5051931;28;20037;-62
2024/03/17 02:53:49;;;;;;;14.90;4.97;;;4.70;99.90;;;;;;5052293;28;20496;-62
2024/03/17 02:56:18;;;;;;;11.20;5.25;;;4.70;99.90;;;;;;5045637;28;20402;-62
2024/03/17 02:58:46;;;;;;;12.05;5.10;;;4.70;99.90;;;;;;5050297;28;20104;-61
2024/03/17 03:01:12;;;;;;;9.65;4.55;;;4.70;99.90;;;;;;5048229;28;20451;-61
2024/03/17 03:03:37;;;;;;;14.82;5.60;;;4.70;99.90;;;;;;5052308;28;20041;-62
2024/03/17 03:06:08;;;;;;;9.48;5.20;;;4.70;99.90;;;;;;5048657;28;20033;-61
2024/03/17 03:08:35;;;;;;;12.68;5.60;;;4.80;99.90;;;;;;5052066;28;20083;-62
2024/03/17 03:11:01;;;;;;;15.20;6.65;;;4.80;99.90;;;;;;5046761;28;20033;-62
2024/03/17 03:13:26;;;;;;;13.82;5.72;;;4.80;99.90;;;;;;5050683;28;20029;-62
2024/03/17 03:15:53;;;;;;;13.70;6.40;;;4.80;99.90;;;;;;5045319;28;20047;-62
2024/03/17 03:18:18;;;;;;;14.90;6.93;;;4.80;99.90;;;;;;5052104;28;20060;-62
2024/03/17 03:20:53;;;;;;;17.80;6.97;;;4.80;99.90;;;;;;5050692;28;20041;-62
2024/03/17 03:23:19;;;;;;;13.57;6.53;;;4.90;99.90;;;;;;5050341;28;20033;-62
2024/03/17 03:25:50;;;;;;;13.15;6.75;;;4.90;99.90;;;;;;5030462;28;20050;-62
2024/03/17 03:28:16;;;;;;;12.55;6.90;;;4.90;99.90;;;;;;5046533;28;20098;-62
2024/03/17 03:30:41;;;;;;;15.23;7.13;;;4.90;99.90;;;;;;5051432;28;20048;-62
2024/03/17 03:33:07;;;;;;;14.40;7.10;;;4.90;99.90;;;;;;5045701;28;20091;-62
2024/03/17 03:35:33;;;;;;;12.57;6.57;;;4.90;99.90;;;;;;5051634;28;20072;-62
2024/03/17 03:37:59;;;;;;;12.20;6.15;;;4.90;99.90;;;;;;5044412;28;20076;-62
2024/03/17 03:40:27;;;;;;;15.00;7.20;;;4.90;99.90;;;;;;5050574;28;20037;-62
2024/03/17 03:42:53;;;;;;;16.75;7.65;;;5.00;99.90;;;;;;5045721;28;20079;-62
2024/03/17 03:45:18;;;;;;;13.63;7.05;;;5.00;99.90;;;;;;5051528;28;20076;-62
2024/03/17 03:47:44;;;;;;;14.82;6.85;;;5.00;99.90;;;;;;5051420;28;20037;-62
2024/03/17 03:50:10;;;;;;;14.40;6.97;;;5.00;99.90;;;;;;5050863;28;20441;-62
2024/03/17 03:52:37;;;;;;;13.60;6.40;;;5.00;99.90;;;;;;5042479;28;20028;-62
2024/03/17 03:55:07;;;;;;;15.52;6.72;;;5.10;99.90;;;;;;5050138;28;20044;-62
2024/03/17 03:57:33;;;;;;;16.17;6.50;;;5.10;99.90;;;;;;5044942;28;20044;-62
2024/03/17 04:00:12;;;;;;;12.93;6.95;;;5.10;99.90;;;;;;5050872;28;20071;-62
2024/03/17 04:02:38;;;;;;;13.20;6.70;;;5.10;99.90;;;;;;5044019;28;20040;-62
2024/03/17 04:05:05;;;;;;;12.70;6.30;;;5.10;99.90;;;;;;5050853;28;20127;-62
2024/03/17 04:07:30;;;;;;;16.15;6.85;;;5.10;99.90;;;;;;5038669;28;20679;-63
2024/03/17 04:09:56;;;;;;;13.50;6.10;;;5.10;99.90;;;;;;5048108;28;20044;-63
2024/03/17 04:12:24;;;;;;;12.93;6.28;;;5.10;99.90;;;;;;5049932;28;20029;-62
2024/03/17 04:14:53;;;;;;;11.57;5.88;;;5.10;99.90;;;;;;5045712;28;20048;-62
2024/03/17 04:17:21;;;;;;;14.07;6.03;;;5.10;99.90;;;;;;5049016;28;20037;-62
2024/03/17 04:19:48;;;;;;;14.05;6.13;;;5.10;99.90;;;;;;5028208;28;20045;-62
2024/03/17 04:22:14;;;;;;;12.77;5.88;;;5.20;99.90;;;;;;5041244;28;20443;-62
2024/03/17 04:24:40;;;;;;;12.73;5.47;;;5.20;99.90;;;;;;5050400;28;20141;-62
2024/03/17 04:27:05;;;;;;;12.98;5.88;;;5.20;99.90;;;;;;5050013;28;20076;-62
2024/03/17 04:29:31;;;;;;;13.75;5.57;;;5.20;99.90;;;;;;5048960;28;20044;-62
2024/03/17 04:31:56;;;;;;;14.90;6.47;;;5.20;99.90;;;;;;5049507;28;20029;-62
2024/03/17 04:34:22;;;;;;;13.15;5.65;;;5.20;99.90;;;;;;5042782;28;20048;-62
2024/03/17 04:36:48;;;;;;;12.00;5.47;;;5.30;99.90;;;;;;5030571;28;20068;-62
2024/03/17 04:39:13;;;;;;;11.95;5.53;;;5.30;99.90;;;;;;5049876;28;20098;-62
2024/03/17 04:41:40;;;;;;;13.50;5.63;;;5.30;99.90;;;;;;5042670;28;20045;-62
2024/03/17 04:44:06;;;;;;;15.95;5.63;;;5.30;99.90;;;;;;5047069;28;20048;-62
2024/03/17 04:46:32;;;;;;;15.40;5.65;;;5.30;99.90;;;;;;5047414;28;20041;-62
2024/03/17 04:48:58;;;;;;;13.75;5.53;;;5.30;99.90;;;;;;5044799;28;20077;-62
2024/03/17 04:51:24;;;;;;;9.52;5.07;;;5.30;99.90;;;;;;5045238;28;20453;-62
2024/03/17 04:53:49;;;;;;;12.15;5.55;;;5.40;99.90;;;;;;5050174;28;20565;-62
2024/03/17 04:56:15;;;;;;;13.55;5.53;;;5.40;99.90;;;;;;5050014;28;20048;-62
2024/03/17 04:58:40;;;;;;;14.32;5.65;;;5.40;99.90;;;;;;5050334;28;20037;-62
2024/03/17 05:01:07;;;;;;;18.25;5.60;;;5.40;99.90;;;;;;5044664;28;20029;-62
2024/03/17 05:03:36;;;;;;;14.52;5.55;;;5.40;99.90;;;;;;5050183;28;20037;-62
2024/03/17 05:06:03;;;;;;;12.63;5.25;;;5.40;99.90;;;;;;5049971;28;20037;-62
2024/03/17 05:08:30;;;;;;;14.95;5.80;;;5.50;99.90;;;;;;5042728;28;20521;-62
2024/03/17 05:11:00;;;;;;;15.02;5.38;;;5.50;99.90;;;;;;5046984;28;20090;-62
2024/03/17 05:13:29;;;;;;;14.52;5.95;;;5.50;99.90;;;;;;5049690;28;20037;-62
2024/03/17 05:18:32;;;;;;;13.75;5.25;;;5.50;99.90;;;;;;5029871;28;20052;-62
2024/03/17 05:21:04;;;;;;;10.48;5.22;;;5.50;99.90;;;;;;5039124;28;20045;-62
2024/03/17 05:23:34;;;;;;;18.43;5.73;;;5.50;99.90;;;;;;5028060;28;20036;-62
2024/03/17 05:26:00;;;;;;;13.10;5.20;;;5.50;99.90;;;;;;5030114;28;20060;-62
2024/03/17 05:28:28;;;;;;;13.40;4.88;;;5.50;99.90;;;;;;5029999;28;20044;-63
2024/03/17 05:30:54;;;;;;;13.55;5.00;;;5.60;99.90;;;;;;5029464;28;20076;-62
2024/03/17 05:33:21;;;;;;;9.82;5.00;;;5.50;99.90;;;;;;5029810;28;20497;-62
2024/03/17 05:35:57;;;;;;;11.10;4.78;;;5.60;99.90;;;;;;5029807;28;20124;-62
2024/03/17 05:38:26;;;;;;;13.00;5.40;;;5.60;99.90;;;;;;5028897;28;20072;-62
2024/03/17 05:40:56;;;;;;;13.45;4.45;;;5.50;99.90;;;;;;5029102;28;20061;-62
2024/03/17 05:43:23;;;;;;;11.30;4.85;;;5.50;99.90;;;;;;5029203;28;20183;-62
2024/03/17 05:45:51;;;;;;;10.45;4.03;;;5.60;99.90;;;;;;5029951;28;20537;-62
2024/03/17 05:48:17;;;;;;;11.70;4.28;;;5.60;99.90;;;;;;5029648;28;20132;-62
2024/03/17 05:50:42;;;;;;;13.90;4.65;;;5.60;99.90;;;;;;5028228;28;20509;-62
2024/03/17 05:53:08;;;;;;;16.42;4.78;;;5.60;99.90;;;;;;5012198;28;20069;-62
2024/03/17 05:55:37;;;;;;;13.32;4.28;;;5.60;99.90;;;;;;5027899;28;20089;-62
2024/03/17 05:58:03;;;;;;;10.48;4.10;;;5.60;99.90;;;;;;5027696;28;20486;-62
2024/03/17 06:00:30;;;;;;;10.05;4.05;;;5.60;99.90;;;;;;5021191;28;20041;-62
2024/03/17 06:02:56;;;;;;;11.30;4.65;;;5.60;99.90;;;;;;5011850;28;20041;-62
2024/03/17 06:05:22;;;;;;;19.55;4.18;;;5.60;99.90;;;;;;5030604;28;20029;-62
2024/03/17 06:07:48;;;;;;;12.77;5.30;;;5.60;99.90;;;;;;5033301;28;20110;-62
2024/03/17 06:10:14;;;;;;;13.90;4.63;;;5.70;99.90;;;;;;5032482;28;20474;-62
2024/03/17 06:12:40;;;;;;;11.98;4.20;;;5.70;99.90;;;;;;5015156;28;20449;-62
2024/03/17 06:15:06;;;;;;;12.88;4.35;;;5.70;99.90;;;;;;5031365;28;20069;-62
2024/03/17 06:17:32;;;;;;;13.60;3.92;;;5.70;99.90;;;;;;5032920;28;20112;-62
2024/03/17 06:19:57;;;;;;;9.32;3.45;;;5.70;99.90;;;;;;5032905;28;20123;-62
2024/03/17 06:22:24;;;;;;;13.07;4.63;;;5.70;99.90;;;;;;5031883;28;20116;-62
2024/03/17 06:24:50;;;;;;;11.77;4.07;;;5.80;99.90;;;;;;5032142;28;20042;-62
2024/03/17 06:27:15;;;;;;;12.05;3.83;;;5.80;99.90;;;;;;5033062;28;20044;-62
2024/03/17 06:29:42;;;;;;;13.48;3.75;;;5.80;99.90;;;;;;5031181;28;20045;-62
2024/03/17 06:32:08;;;;;;;11.20;4.03;;;5.80;99.90;;;;;;5030599;28;20524;-62
2024/03/17 06:34:34;;;;;;;13.77;3.95;;;5.80;99.90;;;;;;5032571;28;20045;-62
2024/03/17 06:37:00;;;;;;;11.55;3.70;;;5.90;99.90;;;;;;5032427;28;20509;-62
2024/03/17 06:39:26;;;;;;;11.25;3.80;;;5.90;99.90;;;;;;5032113;28;20041;-62
2024/03/17 06:41:52;;;;;;;10.35;4.25;;;5.90;99.90;;;;;;5015078;28;20041;-62
2024/03/17 06:44:18;;;;;;;14.43;3.83;;;5.90;99.90;;;;;;5032682;28;20049;-62
2024/03/17 06:46:46;;;;;;;12.65;3.78;;;5.90;99.90;;;;;;5032530;28;20081;-62
2024/03/17 06:49:12;;;;;;;7.82;3.67;;;6.00;99.90;;;;;;5031625;28;20037;-62
2024/03/17 06:51:38;;;;;;;13.60;3.80;;;6.00;99.90;;;;;;5032427;28;20040;-62
2024/03/17 06:54:04;;;;;;;11.93;3.80;;;6.00;99.90;;;;;;5032442;28;20083;-62
2024/03/17 06:56:29;;;;;;;7.35;3.53;;;6.00;99.90;;;;;;5032238;28;20025;-62
2024/03/17 06:58:55;;;;;;;12.00;3.45;;;6.00;99.90;;;;;;5032487;28;20041;-62
2024/03/17 07:01:20;;;;;;;9.15;3.72;;;6.00;99.90;;;;;;5032146;28;20034;-62
2024/03/17 07:03:46;;;;;;;11.15;3.33;;;6.20;99.90;;;;;;5031233;28;20033;-62
2024/03/17 07:06:12;;;;;;;10.27;3.95;;;6.10;99.90;;;;;;5031994;28;20552;-62
2024/03/17 07:08:37;;;;;;;12.02;4.32;;;6.10;99.90;;;;;;5029986;28;20045;-62
2024/03/17 07:11:05;;;;;;;11.35;3.85;;;6.10;99.90;;;;;;5031423;28;20124;-62
2024/03/17 07:13:33;;;;;;;9.02;3.80;;;6.10;99.90;;;;;;5032343;28;20109;-62
2024/03/17 07:16:00;;;;;;;8.75;3.92;;;6.20;99.90;;;;;;5031380;28;20481;-62
2024/03/17 07:18:27;;;;;;;15.05;3.90;;;6.20;99.90;;;;;;5031016;28;20088;-62
2024/03/17 07:20:53;;;;;;;8.88;3.78;;;6.20;99.90;;;;;;5031460;28;20037;-62
2024/03/17 07:23:19;;;;;;;10.23;4.15;;;6.30;99.90;;;;;;5030780;28;20033;-62
2024/03/17 07:25:58;;;;;;;14.30;4.10;;;6.30;99.90;;;;;;5031546;28;20080;-62
2024/03/17 07:28:24;;;;;;;12.93;4.68;;;6.30;99.90;;;;;;5031948;28;20677;-62
2024/03/17 07:30:55;;;;;;;12.23;4.18;;;6.30;99.90;;;;;;5031231;28;20037;-62
2024/03/17 07:33:22;;;;;;;11.38;3.85;;;6.40;99.90;;;;;;5031743;28;20033;-62
2024/03/17 07:35:59;;;;;;;11.70;4.07;;;6.40;99.90;;;;;;5031522;28;20037;-62
2024/03/17 07:38:26;;;;;;;11.80;4.72;;;6.40;99.90;;;;;;5030497;28;20034;-62
2024/03/17 07:41:04;;;;;;;12.63;4.82;;;6.40;99.90;;;;;;5025206;28;20494;-62
2024/03/17 07:43:38;;;;;;;13.13;4.40;;;6.50;99.90;;;;;;5019909;28;20037;-62
2024/03/17 07:46:13;;;;;;;12.05;5.10;;;6.50;99.90;;;;;;5029211;28;20037;-62
2024/03/17 07:48:41;;;;;;;13.95;5.20;;;6.60;99.90;;;;;;5031170;28;20049;-62
2024/03/17 07:51:09;;;;;;;12.52;5.38;;;6.70;99.90;;;;;;5012680;28;20041;-62
2024/03/17 07:53:38;;;;;;;14.15;6.03;;;6.80;99.90;;;;;;5029502;28;20498;-62
2024/03/17 07:56:05;;;;;;;13.50;5.55;;;6.80;99.90;;;;;;5029404;28;20405;-62
2024/03/17 07:58:33;;;;;;;12.77;5.72;;;6.90;99.90;;;;;;5030724;28;20033;-63
2024/03/17 08:01:03;;;;;;;15.23;6.05;;;7.00;99.90;;;;;;5029289;28;20098;-62
2024/03/17 08:03:31;;;;;;;12.45;6.55;;;6.80;99.90;;;;;;5028499;28;20041;-62
2024/03/17 08:05:57;;;;;;;16.60;7.15;;;7.20;99.90;;;;;;5029000;28;20522;-62
2024/03/17 08:08:23;;;;;;;19.55;7.22;;;7.30;99.90;;;;;;5027108;28;20053;-62
2024/03/17 08:10:49;;;;;;;17.95;6.93;;;7.40;99.90;;;;;;5029900;28;20184;-62
2024/03/17 08:13:16;;;;;;;17.20;7.25;;;7.40;99.90;;;;;;5026146;28;20486;-62
2024/03/17 08:15:43;;;;;;;18.40;7.47;;;7.50;99.90;;;;;;5026300;28;20044;-62
2024/03/17 08:18:09;;;;;;;17.83;6.95;;;7.60;99.90;;;;;;5030604;28;20048;-62
2024/03/17 08:20:44;;;;;;;18.80;7.93;;;7.60;99.90;;;;;;5030140;28;20426;-62
2024/03/17 08:23:10;;;;;;;17.40;7.50;;;7.60;99.90;;;;;;5030847;28;20535;-63
2024/03/17 08:25:36;;;;;;;17.38;8.48;;;7.70;99.90;;;;;;5023226;28;20120;-62
2024/03/17 08:28:02;;;;;;;15.90;8.38;;;7.80;99.90;;;;;;5029804;28;20073;-62
2024/03/17 08:30:28;;;;;;;16.63;7.47;;;7.80;99.90;;;;;;5029709;28;20045;-62
2024/03/17 08:32:54;;;;;;;16.92;8.02;;;7.90;99.90;;;;;;5030556;28;20558;-62
2024/03/17 08:35:20;;;;;;;16.23;8.63;;;8.00;99.90;;;;;;5030173;28;20560;-62
2024/03/17 08:37:46;;;;;;;16.42;8.85;;;8.00;99.90;;;;;;5030544;28;20056;-62
2024/03/17 08:40:12;;;;;;;18.70;9.10;;;8.10;99.90;;;;;;5029633;28;20509;-62
2024/03/17 08:42:38;;;;;;;19.52;8.50;;;8.20;99.90;;;;;;5030125;28;20041;-62
2024/03/17 08:45:04;;;;;;;16.92;9.88;;;8.30;99.90;;;;;;5030506;28;20726;-62
2024/03/17 08:47:30;;;;;;;17.17;9.80;;;8.40;99.90;;;;;;5030710;28;20103;-62
2024/03/17 08:49:55;;;;;;;18.35;9.50;;;8.50;99.90;;;;;;5029930;28;20045;-63
2024/03/17 08:52:21;;;;;;;17.75;10.02;;;8.70;99.90;;;;;;5029298;28;20383;-62
2024/03/17 08:54:47;;;;;;;14.02;9.77;;;8.80;99.90;;;;;;5029820;28;20037;-62
2024/03/17 08:57:14;;;;;;;17.90;9.82;;;8.90;99.90;;;;;;5029535;28;20045;-62
2024/03/17 08:59:39;;;;;;;17.52;9.85;;;8.90;99.90;;;;;;5029282;28;20052;-62
2024/03/17 09:02:10;;;;;;;19.60;10.52;;;8.90;99.90;;;;;;5030051;28;20120;-62
2024/03/17 09:04:36;;;;;;;20.88;9.77;;;8.90;99.90;;;;;;5028728;28;20037;-62
2024/03/17 09:07:03;;;;;;;16.73;9.73;;;9.00;99.90;;;;;;5030440;28;20033;-62
2024/03/17 09:09:29;;;;;;;20.17;10.35;;;8.90;99.90;;;;;;5029930;28;20069;-63
2024/03/17 09:11:55;;;;;;;17.35;10.23;;;9.00;99.90;;;;;;5028775;28;20080;-62
2024/03/17 09:14:21;;;;;;;18.50;10.20;;;9.00;99.90;;;;;;5028021;28;20056;-62
2024/03/17 09:16:48;;;;;;;17.98;10.25;;;9.10;99.90;;;;;;5026769;28;20040;-63
2024/03/17 09:19:14;;;;;;;18.02;9.77;;;9.00;99.90;;;;;;5028067;28;20099;-62
2024/03/17 09:21:39;;;;;;;15.73;10.07;;;9.10;99.90;;;;;;5025511;28;20588;-63
2024/03/17 09:24:08;;;;;;;15.85;9.63;;;9.10;99.90;;;;;;5028884;28;20040;-63
2024/03/17 09:26:34;;;;;;;18.48;9.93;;;9.10;99.90;;;;;;5026792;28;20037;-62
2024/03/17 09:29:01;;;;;;;17.27;10.32;;;9.20;99.90;;;;;;5027053;28;20126;-62
2024/03/17 09:31:27;;;;;;;15.93;10.02;;;9.30;99.90;;;;;;5028923;28;20036;-62
2024/03/17 09:33:53;;;;;;;17.33;9.77;;;9.30;99.90;;;;;;5019432;28;20037;-62
2024/03/17 09:36:18;;;;;;;18.02;10.00;;;9.40;99.90;;;;;;5008833;28;20122;-62
2024/03/17 09:38:48;;;;;;;15.77;9.57;;;9.50;99.90;;;;;;5024944;28;20053;-62
2024/03/17 09:41:31;;;;;;;15.05;9.80;;;9.60;99.90;;;;;;5029756;28;20402;-62
2024/03/17 09:43:58;;;;;;;15.98;9.57;;;9.70;99.90;;;;;;5033019;28;20037;-62
2024/03/17 09:46:28;;;;;;;17.20;9.95;;;9.70;99.90;;;;;;5030125;28;20049;-63
2024/03/17 09:48:54;;;;;;;15.63;8.85;;;9.80;99.90;;;;;;5012385;28;20061;-62
2024/03/17 09:51:25;;;;;;;15.05;9.27;;;9.90;99.90;;;;;;5011859;28;20041;-62
2024/03/17 09:53:51;;;;;;;15.93;8.95;;;10.00;99.90;;;;;;5030477;28;20134;-62
2024/03/17 09:56:19;;;;;;;15.40;8.38;;;10.00;99.90;;;;;;5032677;28;20108;-62
2024/03/17 09:58:49;;;;;;;14.88;9.07;;;10.10;99.90;;;;;;5030234;28;20486;-62
2024/03/17 10:01:15;;;;;;;20.45;9.63;;;10.20;99.90;;;;;;5031920;28;20061;-62
2024/03/17 10:04:03;;;;;;;16.65;9.52;;;10.20;99.90;;;;;;5032416;28;20580;-62
2024/03/17 10:06:30;;;;;;;14.80;9.07;;;10.20;99.90;;;;;;5028461;28;20509;-62
2024/03/17 10:09:04;;;;;;;14.75;8.45;;;10.40;99.90;;;;;;5010000;28;20041;-62
2024/03/17 10:11:36;;;;;;;14.00;9.20;;;10.40;99.90;;;;;;5031915;28;20038;-62
2024/03/17 10:14:07;;;;;;;13.07;8.70;;;10.40;99.90;;;;;;5012612;28;20171;-62
2024/03/17 10:16:37;;;;;;;13.65;8.70;;;10.50;99.90;;;;;;5026851;28;20052;-62
2024/03/17 10:19:27;;;;;;;14.23;9.15;;;10.60;99.90;;;;;;5008923;28;20069;-62
2024/03/17 10:22:00;;;;;;;13.32;8.23;;;10.60;99.90;;;;;;5009994;28;20746;-62
2024/03/17 10:24:29;;;;;;;13.27;8.65;;;10.50;99.90;;;;;;5029761;28;20037;-62
2024/03/17 10:26:56;;;;;;;13.07;8.30;;;10.50;99.90;;;;;;5031430;28;20127;-62
2024/03/17 10:29:27;;;;;;;14.05;8.82;;;10.50;99.90;;;;;;5031734;28;20046;-62
2024/03/17 10:31:55;;;;;;;12.35;8.20;;;10.50;99.90;;;;;;5027969;28;20706;-62
2024/03/17 10:34:24;;;;;;;13.10;8.57;;;10.50;99.90;;;;;;5032362;28;20037;-63
2024/03/17 10:37:12;;;;;;;12.93;8.07;;;10.50;99.90;;;;;;5031448;28;20056;-62
2024/03/17 10:39:40;;;;;;;14.52;8.90;;;10.50;99.90;;;;;;5028701;28;20545;-63
2024/03/17 10:42:07;;;;;;;13.48;8.05;;;10.50;99.90;;;;;;5028076;28;20039;-63
2024/03/17 10:44:35;;;;;;;11.15;8.05;;;10.50;99.90;;;;;;5027996;28;20048;-63
2024/03/17 10:47:02;;;;;;;13.50;8.27;;;10.60;99.90;;;;;;5027060;28;20485;-63
2024/03/17 10:49:33;;;;;;;12.55;8.35;;;10.50;99.90;;;;;;5029322;28;20037;-63
2024/03/17 10:52:00;;;;;;;36.08;22.60;;;10.50;99.90;;;;;;5027800;28;20034;-64
2024/03/17 10:54:28;;;;;;;18.52;10.45;;;10.50;99.90;;;;;;5030750;28;20448;-64
2024/03/17 10:56:57;;;;;;;14.45;9.88;;;10.40;99.90;;;;;;5027677;28;20655;-64
2024/03/17 10:59:40;;;;;;;16.77;10.02;;;10.40;99.90;;;;;;5029446;28;20041;-63
2024/03/17 11:02:15;;;;;;;15.23;8.60;;;10.50;99.90;;;;;;5030447;28;20049;-60
2024/03/17 11:04:41;;;;;;;13.82;8.13;;;10.50;99.90;;;;;;5009474;28;20137;-64
2024/03/17 11:07:17;;;;;;;14.55;7.93;;;10.50;99.90;;;;;;5030164;28;20048;-63
2024/03/17 11:09:44;;;;;;;12.43;7.72;;;10.50;99.90;;;;;;5029467;28;20041;-63
2024/03/17 11:12:42;;;;;;;16.85;9.75;;;10.50;99.90;;;;;;5029625;28;20068;-63
2024/03/17 11:15:38;;;;;;;13.52;8.65;;;10.50;99.90;;;;;;5031014;28;20087;-64
2024/03/17 11:18:12;;;;;;;12.27;8.15;;;10.50;99.90;;;;;;5029535;28;20060;-63
2024/03/17 11:20:40;;;;;;;12.40;8.27;;;10.60;99.90;;;;;;5027601;28;20073;-63
2024/03/17 11:23:06;;;;;;;12.63;8.48;;;10.70;99.90;;;;;;5061766;23;20132;-78
2024/03/17 11:25:34;;;;;;;12.60;8.60;;;10.70;99.90;;;;;;5030698;28;20126;-79
2024/03/17 11:28:02;;;;;;;12.70;8.52;;;10.70;99.90;;;;;;5016836;28;20178;-78
2024/03/17 11:30:47;;;;;;;16.63;9.38;;;10.70;99.90;;;;;;5033387;28;20489;-78
2024/03/17 11:33:37;;;;;;;13.30;8.95;;;10.70;99.90;;;;;;5018635;28;20060;-77
2024/03/17 11:36:27;;;;;;;14.38;10.30;;;10.70;99.90;;;;;;5051432;28;20033;-78
2024/03/17 11:38:56;;;;;;;13.68;9.30;;;10.70;99.90;;;;;;5035320;28;20037;-78
2024/03/17 11:41:43;;;;;;;17.17;10.02;;;10.70;99.90;;;;;;5051112;28;20064;-78
2024/03/17 11:44:18;;;;;;;13.68;9.30;;;11.00;99.90;;;;;;5031841;28;20049;-78
2024/03/17 11:46:51;;;;;;;14.88;8.80;;;10.70;99.90;;;;;;5033777;28;20068;-77
2024/03/17 11:49:27;;;;;;;13.75;9.27;;;10.80;99.90;;;;;;5034883;28;20033;-78
2024/03/17 11:51:55;;;;;;;17.63;8.68;;;10.80;99.90;;;;;;5027257;28;20120;-79
2024/03/17 11:54:27;;;;;;;13.65;10.70;;;10.90;99.90;;;;;;5036488;28;20041;-78
2024/03/17 11:56:54;;;;;;;14.38;9.45;;;11.00;99.90;;;;;;5029403;28;20037;-78
2024/03/17 11:59:21;;;;;;;14.93;8.52;;;11.00;99.90;;;;;;5043107;28;20522;-78
2024/03/17 12:01:47;;;;;;;11.75;8.18;;;11.10;99.90;;;;;;5020168;28;20560;-79
2024/03/17 12:04:24;;;;;;;16.48;8.30;;;11.00;99.90;;;;;;5027371;28;20044;-78
2024/03/17 12:06:58;;;;;;;13.38;8.98;;;11.10;99.90;;;;;;5046199;28;20045;-79
2024/03/17 12:09:31;;;;;;;15.07;9.25;;;10.90;99.90;;;;;;5016889;28;20044;-78
2024/03/17 12:12:13;;;;;;;14.23;10.05;;;11.00;99.90;;;;;;5030164;28;20112;-78
2024/03/17 12:14:39;;;;;;;12.63;9.23;;;10.90;99.90;;;;;;5027200;28;20051;-76
2024/03/17 12:17:08;;;;;;;14.60;9.60;;;10.90;99.90;;;;;;5023168;28;20095;-77
2024/03/17 12:19:34;;;;;;;16.00;10.68;;;10.90;99.90;;;;;;5033165;28;20139;-77
2024/03/17 12:22:01;;;;;;;13.00;9.32;;;10.90;99.90;;;;;;5047693;28;20037;-78
2024/03/17 12:24:28;;;;;;;14.95;9.45;;;10.90;99.90;;;;;;5017407;28;20044;-78
2024/03/17 12:26:56;;;;;;;13.55;9.02;;;11.00;99.90;;;;;;5028786;28;20052;-78
2024/03/17 12:29:27;;;;;;;11.52;7.68;;;11.20;99.90;;;;;;5031860;28;20044;-78
2024/03/17 12:31:54;;;;;;;12.32;9.00;;;11.10;99.90;;;;;;5049016;28;20041;-80
2024/03/17 12:34:21;;;;;;;13.20;8.20;;;11.00;99.90;;;;;;5050214;28;20037;-80
2024/03/17 12:36:48;;;;;;;11.55;8.70;;;11.00;99.90;;;;;;5026999;28;20454;-79
2024/03/17 12:39:22;;;;;;;14.50;9.15;;;11.10;99.90;;;;;;5044578;28;20661;-79
2024/03/17 12:42:04;;;;;;;16.42;8.55;;;11.10;99.90;;;;;;5032842;28;20171;-80
2024/03/17 12:44:43;;;;;;;12.82;8.60;;;11.20;99.90;;;;;;5031057;28;20037;-81
2024/03/17 12:47:15;;;;;;;13.10;7.93;;;11.20;99.90;;;;;;5031016;28;20515;-80
2024/03/17 12:49:53;;;;;;;;;;;11.20;99.90;;;;;;5047700;28;20033;-80
2024/03/17 12:52:24;;;;;;;19.52;12.00;;;11.30;99.90;;;;;;5036304;28;20402;-80
2024/03/17 13:01:00;;;;;;;12.15;8.57;;;11.40;99.90;;;;;;5027266;28;20124;-80
2024/03/17 13:03:29;;;;;;;15.25;10.80;;;11.40;99.90;;;;;;5052052;28;20046;-81